• Join FlightAware (Why Join?)
  • Login
  • US Flag 
10:28PM EDT


 

Airport Tracker/Info


-or-


 

Live Flight TrackerFlight Track Log ✈ CNS313 ✈ 22-May-2013 ✈ KPDK - KARW

Flight Track Log - Related Links

Times and Time Zones

All times are in EDT time to prevent confusion due to time zone crossing. See the CNS313 flight status page for this flight to view local times or setup timezone preferences in your user account.

Time Position Orientation Groundspeed Altitude Reporting Facility
EDT Latitude Longitude Course Direction KTS MPH feet Rate Location/Type
05:00PM 33.8667 -84.2667 90° East 135 155 2,600  Level Atlanta TRACON
05:01PM 33.8667 -84.2167 90° East 153 176 4,100 1,200 Climbing Atlanta TRACON
05:02PM 33.8667 -84.1667 90° East 160 184 5,000 420 Climbing Atlanta TRACON
05:03PM 33.8500 -84.1000 107° East 205 236 5,000  Level Atlanta TRACON
05:04PM 33.8333 -84.0333 107° East 209 241 5,000 600 Level Atlanta TRACON
05:05PM 33.8333 -83.9667 90° East 190 219 6,300 1,200 Climbing Atlanta TRACON
05:06PM 33.8000 -83.9167 129° Southeast 171 197 7,500 1,320 Climbing Atlanta TRACON
05:07PM 33.7878 -83.8589 104° East 176 203 9,100 1,440 Climbing Atlanta Center
05:08PM 33.7689 -83.8089 114° Southeast 176 203 10,500 900 Climbing Atlanta Center
05:09PM 33.7500 -83.7589 114° Southeast 170 196 11,000 240 Climbing Atlanta Center
05:10PM 33.7250 -83.6917 114° Southeast 198 228 11,000  Level Atlanta Center
05:11PM 33.6975 -83.6219 115° Southeast 219 252 11,000 420 Level Atlanta Center
05:12PM 33.6681 -83.5544 118° Southeast 230 265 11,900 1,500 Climbing Atlanta Center
05:13PM 33.6447 -83.4997 117° Southeast 197 227 14,000 1,560 Climbing Atlanta Center
05:14PM 33.6281 -83.4475 111° Southeast 173 199 15,100 1,020 Climbing Atlanta Center
05:15PM 33.6067 -83.3903 114° Southeast 168 193 16,100 1,020 Climbing Atlanta Center
05:16PM 33.5856 -83.3356 115° Southeast 174 200 17,200 960 Climbing Atlanta Center
05:17PM 33.5664 -83.2783 112° Southeast 174 200 18,100 900 Climbing Atlanta Center
05:18PM 33.5411 -83.2214 118° Southeast 179 206 19,000 420 Climbing Atlanta Center
05:19PM 33.5114 -83.1519 117° Southeast 207 238 19,000  Level Atlanta Center
05:20PM 33.4817 -83.0775 116° Southeast 231 266 19,000  Level Atlanta Center
05:21PM 33.4475 -83.0006 118° Southeast 253 291 19,000  Level Atlanta Center
05:22PM 33.4197 -82.9214 113° Southeast 253 291 19,000  Level Atlanta Center
05:23PM 33.3878 -82.8447 117° Southeast 260 299 19,000  Level Atlanta Center
05:24PM 33.3514 -82.7681 120° Southeast 260 299 19,000  Level Atlanta Center
05:25PM 33.3172 -82.6914 118° Southeast 260 299 19,000  Level Atlanta Center
05:26PM 33.2831 -82.6150 118° Southeast 260 299 19,000  Level Atlanta Center
05:27PM 33.2508 -82.5383 117° Southeast 260 299 19,000  Level Atlanta Center
05:28PM 33.2164 -82.4619 118° Southeast 260 299 19,000  Level Atlanta Center
05:29PM 33.1842 -82.3858 117° Southeast 260 299 19,000  Level Atlanta Center
05:30PM 33.1517 -82.3094 117° Southeast 260 299 19,000  Level Atlanta Center
05:32PM 33.0892 -82.1611 117° Southeast 264 304 19,000  Level Jacksonville Center
05:33PM 33.0533 -82.0847 119° Southeast 259 298 19,000  Level Jacksonville Center
05:34PM 33.0236 -82.0056 114° Southeast 259 298 19,000  Level Jacksonville Center
05:35PM 32.9894 -81.9317 119° Southeast 259 298 19,000  Level Jacksonville Center
05:36PM 32.9578 -81.8578 117° Southeast 259 298 19,000 -180 Level Jacksonville Center
05:37PM 32.9236 -81.7814 118° Southeast 259 298 18,700 -780 Descending Jacksonville Center
05:38PM 32.8917 -81.7003 115° Southeast 265 305 17,500 -1,200 Descending Jacksonville Center
05:39PM 32.8678 -81.6164 109° East 265 305 16,300 -1,200 Descending Jacksonville Center
05:40PM 32.8419 -81.5375 111° Southeast 265 305 15,200 -1,200 Descending Jacksonville Center
05:41PM 32.8181 -81.4589 110° East 260 299 14,000 -1,200 Descending Jacksonville Center
05:42PM 32.7922 -81.3828 112° Southeast 249 287 12,900 -1,200 Descending Jacksonville Center
05:43PM 32.7600 -81.3092 117° Southeast 249 287 11,700 -960 Descending Jacksonville Center
05:44PM 32.7256 -81.2381 120° Southeast 249 287 11,000 -600 Descending Jacksonville Center
05:45PM 32.6914 -81.1647 119° Southeast 244 281 10,600 -900 Descending Jacksonville Center
05:46PM 32.6611 -81.0911 116° Southeast 249 287 9,300 -1,320 Descending Jacksonville Center
05:47PM 32.6350 -81.0228 114° Southeast 244 281 8,000 -1,500 Descending Jacksonville Center
05:48PM 32.6067 -80.9419 113° Southeast 240 276 6,400 -1,440 Descending Jacksonville Center
05:49PM 32.5786 -80.8808 119° Southeast 220 253 5,200 -1,260 Descending Jacksonville Center
05:50PM 32.5525 -80.8272 120° Southeast 201 231 3,900 -1,380 Descending Jacksonville Center
05:51PM 32.5347 -80.7636 108° East 194 223 2,500 -1,440 Descending Jacksonville Center
05:53PM 32.4778 -80.7035 90° East  Level Estimated
06:00PM 32.4122 -80.6344 125° Southeast  Level Estimated
06:01PM 32.4122 -80.6344 125° Southeast  Level Estimated